Time;durP1;ratioP1;P1;durP2;ratioP2;P2;SDS_P1;SDS_P2;PMS_P1;PMS_P2;Temp;Humidity;BMP_temperature;BMP_pressure;BME280_temperature;BME280_humidity;BME280_pressure;Samples;Min_cycle;Max_cycle;Signal;HPM_P1;HPM_P2
2022/02/19 00:00:41;;;;;;;3.90;1.98;;;;;;;;;;5038484;28;20686;-82
2022/02/19 00:03:09;;;;;;;5.05;2.55;;;;;;;;;;5040563;28;20285;-81
2022/02/19 00:05:37;;;;;;;6.47;2.75;;;;;;;;;;5043570;28;20230;-82
2022/02/19 00:08:06;;;;;;;6.68;3.28;;;;;;;;;;5038339;28;20264;-83
2022/02/19 00:10:33;;;;;;;5.05;2.53;;;;;;;;;;5045523;28;20199;-82
2022/02/19 00:13:00;;;;;;;3.85;1.67;;;;;;;;;;5041712;28;20222;-82
2022/02/19 00:15:29;;;;;;;3.65;1.88;;;;;;;;;;5037807;28;20210;-82
2022/02/19 00:17:56;;;;;;;5.20;1.52;;;;;;;;;;5036643;28;20230;-83
2022/02/19 00:20:24;;;;;;;5.28;2.13;;;;;;;;;;5036674;28;20218;-83
2022/02/19 00:22:51;;;;;;;3.75;1.95;;;;;;;;;;5037838;28;20724;-82
2022/02/19 00:25:20;;;;;;;4.28;1.48;;;;;;;;;;5038509;28;20214;-82
2022/02/19 00:27:48;;;;;;;4.00;1.60;;;;;;;;;;5037471;28;20203;-83
2022/02/19 00:30:15;;;;;;;3.92;2.28;;;;;;;;;;5037714;28;20671;-83
2022/02/19 00:32:43;;;;;;;3.63;1.60;;;;;;;;;;5036684;28;20229;-83
2022/02/19 00:35:10;;;;;;;4.07;1.70;;;;;;;;;;5036905;28;20202;-82
2022/02/19 00:37:38;;;;;;;2.22;1.58;;;;;;;;;;5036754;28;20230;-83
2022/02/19 00:40:08;;;;;;;2.25;1.90;;;;;;;;;;5036139;28;20256;-83
2022/02/19 00:42:36;;;;;;;5.13;1.73;;;;;;;;;;5037074;28;20210;-82
2022/02/19 00:45:04;;;;;;;3.85;2.25;;;;;;;;;;5037091;28;20229;-83
2022/02/19 00:47:31;;;;;;;1.98;1.48;;;;;;;;;;5036765;28;20230;-82
2022/02/19 00:49:59;;;;;;;6.25;1.88;;;;;;;;;;5036757;28;20272;-83
2022/02/19 00:52:26;;;;;;;1.98;1.58;;;;;;;;;;5036995;28;20229;-84
2022/02/19 00:54:53;;;;;;;2.65;1.58;;;;;;;;;;5036124;28;20209;-83
2022/02/19 00:57:21;;;;;;;3.22;1.98;;;;;;;;;;5036456;28;20229;-83
2022/02/19 00:59:49;;;;;;;7.68;1.95;;;;;;;;;;5036163;28;20198;-84
2022/02/19 01:02:16;;;;;;;2.90;1.40;;;;;;;;;;5036616;28;20198;-83
2022/02/19 01:04:44;;;;;;;2.33;1.55;;;;;;;;;;5036070;28;20206;-83
2022/02/19 01:07:11;;;;;;;3.10;1.38;;;;;;;;;;5034914;28;20226;-83
2022/02/19 01:09:38;;;;;;;7.75;2.00;;;;;;;;;;5036233;28;20205;-84
2022/02/19 01:12:07;;;;;;;2.85;1.55;;;;;;;;;;5036056;28;20260;-83
2022/02/19 01:14:34;;;;;;;3.72;1.60;;;;;;;;;;5035751;28;20256;-82
2022/02/19 01:17:03;;;;;;;2.72;1.80;;;;;;;;;;5035556;28;20635;-83
2022/02/19 01:19:30;;;;;;;3.35;1.63;;;;;;;;;;5035761;28;20237;-82
2022/02/19 01:21:58;;;;;;;2.65;1.10;;;;;;;;;;5035324;28;20510;-82
2022/02/19 01:24:26;;;;;;;2.17;1.30;;;;;;;;;;5035321;28;20210;-82
2022/02/19 01:26:53;;;;;;;2.08;0.98;;;;;;;;;;5034586;28;20223;-82
2022/02/19 01:29:20;;;;;;;2.38;1.10;;;;;;;;;;5035061;28;20198;-82
2022/02/19 01:31:48;;;;;;;2.67;1.45;;;;;;;;;;5035237;28;20213;-83
2022/02/19 01:34:16;;;;;;;2.35;1.20;;;;;;;;;;5035001;28;20637;-83
2022/02/19 01:36:44;;;;;;;3.22;1.55;;;;;;;;;;5035024;28;20222;-83
2022/02/19 01:39:12;;;;;;;3.45;1.60;;;;;;;;;;5036198;28;20209;-83
2022/02/19 01:41:39;;;;;;;1.98;1.60;;;;;;;;;;5034570;28;20217;-84
2022/02/19 01:44:09;;;;;;;4.32;2.38;;;;;;;;;;5035966;28;20202;-83
2022/02/19 01:46:36;;;;;;;3.67;1.33;;;;;;;;;;5034901;28;20230;-83
2022/02/19 01:49:05;;;;;;;3.40;1.50;;;;;;;;;;5035345;28;20257;-83
2022/02/19 01:51:35;;;;;;;2.47;1.52;;;;;;;;;;5035175;28;20694;-81
2022/02/19 01:54:03;;;;;;;4.07;1.65;;;;;;;;;;5034614;28;20226;-82
2022/02/19 01:56:30;;;;;;;2.00;1.23;;;;;;;;;;5035065;28;20233;-83
2022/02/19 01:58:58;;;;;;;3.75;1.58;;;;;;;;;;5035571;28;20198;-83
2022/02/19 02:01:25;;;;;;;1.77;1.30;;;;;;;;;;5036170;28;20198;-83
2022/02/19 02:03:53;;;;;;;3.25;1.30;;;;;;;;;;5035462;28;20198;-82
2022/02/19 02:06:21;;;;;;;4.63;1.73;;;;;;;;;;5035081;28;20222;-83
2022/02/19 02:08:50;;;;;;;1.58;1.38;;;;;;;;;;5034563;28;20194;-84
2022/02/19 02:11:17;;;;;;;3.28;1.67;;;;;;;;;;5034707;28;20218;-82
2022/02/19 02:13:45;;;;;;;3.25;1.75;;;;;;;;;;5034717;28;20222;-83
2022/02/19 02:16:12;;;;;;;4.38;1.88;;;;;;;;;;5035693;28;20238;-83
2022/02/19 02:18:39;;;;;;;2.13;1.83;;;;;;;;;;5035862;28;20293;-83
2022/02/19 02:21:06;;;;;;;1.33;1.00;;;;;;;;;;5034685;28;20211;-83
2022/02/19 02:23:35;;;;;;;5.70;1.70;;;;;;;;;;5034551;28;20198;-83
2022/02/19 02:26:05;;;;;;;2.70;1.40;;;;;;;;;;5034996;28;20226;-83
2022/02/19 02:28:32;;;;;;;1.83;1.55;;;;;;;;;;5035190;28;20206;-83
2022/02/19 02:30:59;;;;;;;2.42;1.48;;;;;;;;;;5034989;28;20210;-83
2022/02/19 02:33:26;;;;;;;2.10;1.33;;;;;;;;;;5036354;28;20233;-83
2022/02/19 02:35:54;;;;;;;2.40;1.30;;;;;;;;;;5038199;28;20225;-83
2022/02/19 02:38:23;;;;;;;2.67;1.75;;;;;;;;;;5037590;28;20670;-84
2022/02/19 02:40:51;;;;;;;3.67;1.80;;;;;;;;;;5037821;28;20670;-83
2022/02/19 02:43:18;;;;;;;3.15;1.70;;;;;;;;;;5038309;28;20237;-84
2022/02/19 02:45:47;;;;;;;2.28;1.42;;;;;;;;;;5038130;28;20272;-83
2022/02/19 02:48:14;;;;;;;1.92;1.30;;;;;;;;;;5038970;28;20550;-83
2022/02/19 02:50:42;;;;;;;8.75;2.20;;;;;;;;;;5036805;28;20217;-83
2022/02/19 02:53:09;;;;;;;2.42;1.58;;;;;;;;;;5038078;28;20624;-82
2022/02/19 02:55:37;;;;;;;2.70;1.67;;;;;;;;;;5037576;28;20802;-82
2022/02/19 02:58:05;;;;;;;4.13;1.65;;;;;;;;;;5036465;28;20253;-81
2022/02/19 03:00:33;;;;;;;1.48;1.30;;;;;;;;;;5038140;28;20210;-83
2022/02/19 03:03:00;;;;;;;2.42;1.40;;;;;;;;;;5038164;28;20211;-84
2022/02/19 03:05:28;;;;;;;3.55;1.38;;;;;;;;;;5038376;28;20293;-82
2022/02/19 03:07:55;;;;;;;1.70;1.23;;;;;;;;;;5036803;28;20202;-82
2022/02/19 03:10:22;;;;;;;1.98;1.35;;;;;;;;;;5036264;28;20229;-81
2022/02/19 03:12:50;;;;;;;5.93;1.77;;;;;;;;;;5036416;28;20202;-82
2022/02/19 03:15:19;;;;;;;5.60;1.52;;;;;;;;;;5036489;28;20206;-83
2022/02/19 03:17:48;;;;;;;3.20;1.65;;;;;;;;;;5036921;28;20290;-83
2022/02/19 03:20:18;;;;;;;1.10;0.90;;;;;;;;;;5036906;28;20209;-83
2022/02/19 03:22:46;;;;;;;2.28;1.70;;;;;;;;;;5036901;28;20581;-81
2022/02/19 03:25:13;;;;;;;1.70;1.55;;;;;;;;;;5037588;28;20202;-83
2022/02/19 03:27:41;;;;;;;2.10;1.40;;;;;;;;;;5036162;28;20214;-82
2022/02/19 03:30:11;;;;;;;3.95;1.98;;;;;;;;;;5036975;28;20210;-83
2022/02/19 03:32:41;;;;;;;1.73;1.52;;;;;;;;;;5035489;28;20206;-82
2022/02/19 03:35:09;;;;;;;3.50;1.65;;;;;;;;;;5036009;28;20225;-82
2022/02/19 03:37:39;;;;;;;2.38;1.40;;;;;;;;;;5035839;28;20231;-83
2022/02/19 03:40:08;;;;;;;4.15;1.25;;;;;;;;;;5035637;28;20206;-82
2022/02/19 03:42:36;;;;;;;1.85;1.20;;;;;;;;;;5035309;28;20210;-81
2022/02/19 03:45:05;;;;;;;2.40;1.50;;;;;;;;;;5035997;28;20659;-82
2022/02/19 03:47:33;;;;;;;6.55;1.38;;;;;;;;;;5035950;28;20233;-82
2022/02/19 03:50:01;;;;;;;7.45;2.05;;;;;;;;;;5035383;28;20232;-82
2022/02/19 03:52:29;;;;;;;1.58;1.30;;;;;;;;;;5035149;28;20256;-83
2022/02/19 03:54:56;;;;;;;5.72;1.92;;;;;;;;;;5034865;28;20757;-81
2022/02/19 03:57:23;;;;;;;1.27;1.05;;;;;;;;;;5034941;28;20222;-83
2022/02/19 03:59:51;;;;;;;2.65;1.45;;;;;;;;;;5035341;28;20336;-82
2022/02/19 04:02:18;;;;;;;3.00;1.75;;;;;;;;;;5035283;28;20203;-83
2022/02/19 04:04:45;;;;;;;3.42;1.27;;;;;;;;;;5035877;28;20207;-82
2022/02/19 04:07:14;;;;;;;1.83;1.45;;;;;;;;;;5034505;28;20281;-83
2022/02/19 04:09:41;;;;;;;1.55;1.20;;;;;;;;;;5036154;28;20210;-81
2022/02/19 04:12:10;;;;;;;3.78;1.35;;;;;;;;;;5035098;28;20689;-83
2022/02/19 04:14:37;;;;;;;3.00;1.50;;;;;;;;;;5034865;28;20218;-81
2022/02/19 04:17:05;;;;;;;1.70;1.50;;;;;;;;;;5034765;28;20590;-83
2022/02/19 04:19:32;;;;;;;3.83;1.45;;;;;;;;;;5036065;28;20207;-83
2022/02/19 04:22:00;;;;;;;2.65;1.50;;;;;;;;;;5035461;28;20256;-82
2022/02/19 04:24:28;;;;;;;4.15;1.48;;;;;;;;;;5034886;28;20671;-83
2022/02/19 04:26:56;;;;;;;2.53;1.23;;;;;;;;;;5034264;28;20222;-83
2022/02/19 04:29:23;;;;;;;3.80;1.92;;;;;;;;;;5034453;28;20232;-82
2022/02/19 04:31:54;;;;;;;3.38;1.42;;;;;;;;;;5033666;28;20702;-82
2022/02/19 04:34:22;;;;;;;3.83;1.75;;;;;;;;;;5033785;28;20233;-82
2022/02/19 04:36:50;;;;;;;2.85;1.38;;;;;;;;;;5033593;28;20317;-81
2022/02/19 04:39:18;;;;;;;3.03;1.73;;;;;;;;;;5033658;28;20202;-82
2022/02/19 04:41:47;;;;;;;3.08;1.42;;;;;;;;;;5033659;28;20225;-81
2022/02/19 04:44:14;;;;;;;1.42;1.23;;;;;;;;;;5034968;28;20206;-81
2022/02/19 04:46:42;;;;;;;3.35;2.28;;;;;;;;;;5034701;28;20420;-82
2022/02/19 04:49:09;;;;;;;1.48;1.20;;;;;;;;;;5034597;28;20206;-82
2022/02/19 04:51:37;;;;;;;2.40;1.10;;;;;;;;;;5034492;28;20581;-82
2022/02/19 04:54:05;;;;;;;2.47;1.40;;;;;;;;;;5035009;28;20202;-83
2022/02/19 04:56:32;;;;;;;2.55;1.20;;;;;;;;;;5034159;28;20234;-82
2022/02/19 04:59:01;;;;;;;1.48;1.23;;;;;;;;;;5035050;28;20255;-83
2022/02/19 05:01:28;;;;;;;1.77;1.20;;;;;;;;;;5034519;28;20202;-81
2022/02/19 05:03:56;;;;;;;5.15;1.58;;;;;;;;;;5034675;28;20195;-82
2022/02/19 05:06:24;;;;;;;3.58;1.23;;;;;;;;;;5034858;28;20607;-83
2022/02/19 05:08:51;;;;;;;3.58;2.40;;;;;;;;;;5033148;28;20217;-83
2022/02/19 05:11:18;;;;;;;4.30;1.05;;;;;;;;;;5034238;28;20214;-81
2022/02/19 05:13:46;;;;;;;3.28;1.50;;;;;;;;;;5034485;28;20678;-83
2022/02/19 05:16:15;;;;;;;1.63;1.00;;;;;;;;;;5034809;28;20225;-83
2022/02/19 05:18:42;;;;;;;1.33;1.10;;;;;;;;;;5034776;28;20686;-83
2022/02/19 05:21:09;;;;;;;1.20;1.10;;;;;;;;;;5034628;28;20244;-82
2022/02/19 05:23:37;;;;;;;3.67;1.35;;;;;;;;;;5034707;28;20198;-81
2022/02/19 05:26:04;;;;;;;2.80;1.83;;;;;;;;;;5034308;28;20218;-82
2022/02/19 05:28:31;;;;;;;1.45;1.17;;;;;;;;;;5034121;28;20201;-82
2022/02/19 05:31:00;;;;;;;1.83;1.23;;;;;;;;;;5035105;28;20203;-83
2022/02/19 05:33:29;;;;;;;1.95;1.10;;;;;;;;;;5034478;28;20205;-82
2022/02/19 05:35:56;;;;;;;1.85;1.27;;;;;;;;;;5033706;28;20226;-82
2022/02/19 05:38:25;;;;;;;3.38;1.55;;;;;;;;;;5034639;28;20198;-84
2022/02/19 05:40:54;;;;;;;1.83;1.25;;;;;;;;;;5034812;28;20228;-84
2022/02/19 05:43:21;;;;;;;3.58;1.30;;;;;;;;;;5034676;28;20202;-84
2022/02/19 05:45:49;;;;;;;1.98;1.17;;;;;;;;;;5034618;28;20231;-84
2022/02/19 05:48:16;;;;;;;2.22;1.63;;;;;;;;;;5033700;28;20206;-83
2022/02/19 05:50:47;;;;;;;3.35;1.00;;;;;;;;;;5033234;28;20198;-83
2022/02/19 05:53:14;;;;;;;4.68;1.13;;;;;;;;;;5033061;28;20194;-84
2022/02/19 05:55:42;;;;;;;1.42;1.08;;;;;;;;;;5034727;28;20288;-84
2022/02/19 05:58:10;;;;;;;3.97;1.30;;;;;;;;;;5035122;28;20203;-85
2022/02/19 06:00:37;;;;;;;3.63;1.48;;;;;;;;;;5034559;28;20691;-85
2022/02/19 06:03:04;;;;;;;2.78;1.35;;;;;;;;;;5034401;28;20206;-84
2022/02/19 06:05:32;;;;;;;4.50;1.95;;;;;;;;;;5034026;28;20206;-82
2022/02/19 06:08:00;;;;;;;4.05;1.55;;;;;;;;;;5035454;28;20209;-84
2022/02/19 06:10:28;;;;;;;1.17;1.08;;;;;;;;;;5036715;28;20659;-85
2022/02/19 06:12:55;;;;;;;3.00;1.58;;;;;;;;;;5037839;28;20214;-84
2022/02/19 06:15:22;;;;;;;2.58;1.75;;;;;;;;;;5037700;28;20226;-84
2022/02/19 06:17:50;;;;;;;1.85;1.20;;;;;;;;;;5037807;28;20203;-86
2022/02/19 06:20:17;;;;;;;2.83;1.48;;;;;;;;;;5038481;28;20203;-86
2022/02/19 06:22:44;;;;;;;3.50;1.70;;;;;;;;;;5037605;28;20208;-84
2022/02/19 06:25:13;;;;;;;2.58;1.05;;;;;;;;;;5037176;28;20444;-83
2022/02/19 06:27:44;;;;;;;2.65;1.20;;;;;;;;;;5037010;28;20221;-85
2022/02/19 06:30:13;;;;;;;4.20;2.05;;;;;;;;;;5037351;28;20210;-84
2022/02/19 06:32:41;;;;;;;1.15;1.10;;;;;;;;;;5037024;28;20260;-84
2022/02/19 06:35:09;;;;;;;3.88;1.25;;;;;;;;;;5037835;28;20206;-86
2022/02/19 06:37:41;;;;;;;2.00;1.30;;;;;;;;;;5037852;28;20222;-84
2022/02/19 06:40:11;;;;;;;3.20;1.27;;;;;;;;;;5037839;28;20593;-85
2022/02/19 06:42:40;;;;;;;3.35;1.45;;;;;;;;;;5037604;28;20202;-85
2022/02/19 06:45:09;;;;;;;1.38;1.27;;;;;;;;;;5037693;28;20198;-84
2022/02/19 06:47:37;;;;;;;1.60;1.17;;;;;;;;;;5037705;28;20279;-85
2022/02/19 06:50:06;;;;;;;6.57;1.50;;;;;;;;;;5037724;28;20232;-83
2022/02/19 06:52:33;;;;;;;1.67;1.58;;;;;;;;;;5037237;28;20206;-84
2022/02/19 06:55:01;;;;;;;2.35;1.55;;;;;;;;;;5037319;28;20210;-84
2022/02/19 06:57:28;;;;;;;1.65;1.27;;;;;;;;;;5036258;28;20226;-84
2022/02/19 06:59:57;;;;;;;1.42;0.98;;;;;;;;;;5037263;28;20202;-84
2022/02/19 07:02:24;;;;;;;1.50;1.35;;;;;;;;;;5037049;28;20206;-84
2022/02/19 07:04:51;;;;;;;2.95;1.33;;;;;;;;;;5037534;28;20206;-83
2022/02/19 07:07:18;;;;;;;2.15;1.60;;;;;;;;;;5036968;28;20621;-83
2022/02/19 07:09:46;;;;;;;0.93;0.93;;;;;;;;;;5036606;28;20202;-84
2022/02/19 07:12:13;;;;;;;0.98;0.90;;;;;;;;;;5036068;28;20276;-86
2022/02/19 07:14:40;;;;;;;3.55;1.52;;;;;;;;;;5035838;28;20590;-84
2022/02/19 07:17:10;;;;;;;2.28;1.70;;;;;;;;;;5035791;28;20702;-84
2022/02/19 07:19:37;;;;;;;5.10;2.58;;;;;;;;;;5036133;28;20701;-84
2022/02/19 07:22:06;;;;;;;1.60;1.30;;;;;;;;;;5037465;28;20226;-85
2022/02/19 07:24:33;;;;;;;3.05;1.20;;;;;;;;;;5037879;28;20729;-84
2022/02/19 07:27:01;;;;;;;2.35;1.20;;;;;;;;;;5037014;28;20218;-84
2022/02/19 07:29:28;;;;;;;1.90;1.58;;;;;;;;;;5036465;28;20570;-84
2022/02/19 07:31:55;;;;;;;3.40;1.42;;;;;;;;;;5036087;28;20272;-84
2022/02/19 07:34:24;;;;;;;2.42;1.10;;;;;;;;;;5036983;28;20214;-83
2022/02/19 07:36:51;;;;;;;2.92;1.48;;;;;;;;;;5036325;28;20222;-84
2022/02/19 07:39:19;;;;;;;1.65;1.35;;;;;;;;;;5036607;28;20281;-84
2022/02/19 07:41:48;;;;;;;4.60;2.22;;;;;;;;;;5035818;28;20272;-85
2022/02/19 07:44:16;;;;;;;4.30;1.10;;;;;;;;;;5036255;28;20671;-86
2022/02/19 07:46:43;;;;;;;2.05;1.38;;;;;;;;;;5036465;28;20218;-84
2022/02/19 08:00:13;;;;;;;2.70;1.40;;;;;;;;;;5036916;28;20260;-85
2022/02/19 08:02:40;;;;;;;1.60;1.40;;;;;;;;;;5035932;28;20197;-86
2022/02/19 08:05:08;;;;;;;1.48;1.38;;;;;;;;;;5036544;28;20202;-84
2022/02/19 08:07:37;;;;;;;2.80;1.92;;;;;;;;;;5036028;28;20249;-84
2022/02/19 08:10:05;;;;;;;2.53;1.50;;;;;;;;;;5037139;28;20233;-86
2022/02/19 08:12:32;;;;;;;4.28;1.67;;;;;;;;;;5036505;28;20194;-86
2022/02/19 08:15:00;;;;;;;3.67;1.77;;;;;;;;;;5037229;28;20206;-83
2022/02/19 08:17:29;;;;;;;4.00;1.67;;;;;;;;;;5035975;28;20609;-84
2022/02/19 08:19:56;;;;;;;1.90;1.30;;;;;;;;;;5035022;28;20542;-84
2022/02/19 08:22:23;;;;;;;1.45;1.33;;;;;;;;;;5035428;28;20208;-84
2022/02/19 08:24:52;;;;;;;2.95;1.45;;;;;;;;;;5035748;28;20206;-85
2022/02/19 08:27:19;;;;;;;1.50;1.30;;;;;;;;;;5036064;28;20309;-84
2022/02/19 08:29:46;;;;;;;6.22;1.92;;;;;;;;;;5035736;28;20198;-85
2022/02/19 08:32:14;;;;;;;4.45;1.65;;;;;;;;;;5035235;28;20207;-84
2022/02/19 08:34:41;;;;;;;4.63;1.48;;;;;;;;;;5035992;28;20198;-84
2022/02/19 08:37:08;;;;;;;3.05;1.55;;;;;;;;;;5035564;28;20652;-84
2022/02/19 08:39:36;;;;;;;5.97;1.38;;;;;;;;;;5035550;28;20705;-84
2022/02/19 08:42:07;;;;;;;2.10;1.90;;;;;;;;;;5035673;28;20217;-85
2022/02/19 08:44:35;;;;;;;2.25;2.00;;;;;;;;;;5035488;28;20241;-84
2022/02/19 08:47:02;;;;;;;3.97;1.52;;;;;;;;;;5035858;28;20226;-84
2022/02/19 08:49:31;;;;;;;2.95;1.30;;;;;;;;;;5035538;28;20720;-83
2022/02/19 08:51:58;;;;;;;1.50;1.40;;;;;;;;;;5035559;28;20194;-84
2022/02/19 08:54:26;;;;;;;1.80;1.40;;;;;;;;;;5034723;28;20715;-84
2022/02/19 08:56:54;;;;;;;3.60;2.33;;;;;;;;;;5039235;28;20226;-81
2022/02/19 08:59:24;;;;;;;3.97;1.98;;;;;;;;;;5044098;28;20272;-82
2022/02/19 09:01:51;;;;;;;2.10;1.58;;;;;;;;;;5043737;28;20212;-81
2022/02/19 09:04:19;;;;;;;3.28;1.75;;;;;;;;;;5046821;28;20206;-83
2022/02/19 09:06:46;;;;;;;2.05;1.30;;;;;;;;;;5045352;28;20218;-80
2022/02/19 09:09:13;;;;;;;3.38;1.85;;;;;;;;;;5042057;28;20202;-83
2022/02/19 09:11:40;;;;;;;4.50;2.17;;;;;;;;;;5045345;28;20214;-82
2022/02/19 09:14:08;;;;;;;3.67;1.40;;;;;;;;;;5045910;28;20273;-81
2022/02/19 09:16:37;;;;;;;1.70;1.13;;;;;;;;;;5046133;28;20230;-83
2022/02/19 09:19:06;;;;;;;2.60;1.58;;;;;;;;;;5043662;28;20209;-82
2022/02/19 09:21:34;;;;;;;1.98;1.33;;;;;;;;;;5043668;28;20206;-83
2022/02/19 09:24:02;;;;;;;4.22;1.48;;;;;;;;;;5044162;28;20208;-84
2022/02/19 09:26:29;;;;;;;3.25;1.20;;;;;;;;;;5045972;28;20214;-82
2022/02/19 09:28:57;;;;;;;6.10;1.83;;;;;;;;;;5044835;28;20207;-83
2022/02/19 09:31:24;;;;;;;4.63;2.17;;;;;;;;;;5045204;28;20209;-81
2022/02/19 09:33:52;;;;;;;14.63;2.00;;;;;;;;;;5045105;28;20197;-83
2022/02/19 09:36:20;;;;;;;8.23;4.82;;;;;;;;;;5045948;28;20229;-83
2022/02/19 09:38:48;;;;;;;4.93;3.42;;;;;;;;;;5045395;28;20226;-83
2022/02/19 09:41:16;;;;;;;5.40;2.17;;;;;;;;;;5047203;28;20210;-83
2022/02/19 09:43:44;;;;;;;2.38;1.70;;;;;;;;;;5049096;28;20197;-83
2022/02/19 09:46:17;;;;;;;3.70;2.17;;;;;;;;;;5050443;28;20657;-82
2022/02/19 09:48:46;;;;;;;2.50;2.03;;;;;;;;;;5050567;28;20209;-82
2022/02/19 09:51:15;;;;;;;2.05;1.50;;;;;;;;;;5050896;28;20198;-83
2022/02/19 09:53:42;;;;;;;1.77;1.63;;;;;;;;;;5050079;28;20209;-83
2022/02/19 09:56:10;;;;;;;4.18;1.85;;;;;;;;;;5050946;28;20222;-81
2022/02/19 09:58:41;;;;;;;3.72;2.13;;;;;;;;;;5050079;28;20229;-82
2022/02/19 10:01:19;;;;;;;2.75;1.48;;;;;;;;;;5049956;28;20613;-83
2022/02/19 10:03:47;;;;;;;3.50;2.72;;;;;;;;;;5049110;28;20728;-84
2022/02/19 10:06:17;;;;;;;4.60;2.58;;;;;;;;;;5050379;28;20222;-83
2022/02/19 10:08:45;;;;;;;4.15;2.25;;;;;;;;;;5048450;28;20697;-85
2022/02/19 10:11:15;;;;;;;8.57;2.05;;;;;;;;;;5050035;28;20214;-84
2022/02/19 10:13:42;;;;;;;2.03;1.40;;;;;;;;;;5049683;28;20203;-82
2022/02/19 10:16:11;;;;;;;2.55;1.63;;;;;;;;;;5050184;28;20234;-84
2022/02/19 10:18:42;;;;;;;3.33;1.30;;;;;;;;;;5050345;28;20420;-84
2022/02/19 10:21:16;;;;;;;1.80;1.25;;;;;;;;;;5053088;28;20733;-83
2022/02/19 10:23:46;;;;;;;2.63;1.85;;;;;;;;;;5050166;28;20229;-83
2022/02/19 10:26:15;;;;;;;4.55;1.98;;;;;;;;;;5050666;28;20218;-82
2022/02/19 10:28:58;;;;;;;8.43;1.75;;;;;;;;;;5049340;28;20199;-83
2022/02/19 10:31:26;;;;;;;2.58;1.55;;;;;;;;;;5050346;28;20245;-83
2022/02/19 10:34:05;;;;;;;4.78;1.55;;;;;;;;;;5049482;28;20199;-83
2022/02/19 10:36:47;;;;;;;5.40;1.80;;;;;;;;;;5050001;28;20237;-83
2022/02/19 10:39:14;;;;;;;4.00;1.35;;;;;;;;;;5049257;28;20222;-83
2022/02/19 10:41:43;;;;;;;2.55;1.85;;;;;;;;;;5047562;28;20210;-83
2022/02/19 10:44:23;;;;;;;2.03;1.30;;;;;;;;;;5048459;28;20198;-81
2022/02/19 10:46:53;;;;;;;2.58;1.23;;;;;;;;;;5048201;28;20230;-83
2022/02/19 10:49:20;;;;;;;2.33;1.30;;;;;;;;;;5048440;28;20198;-83
2022/02/19 10:51:49;;;;;;;3.63;1.90;;;;;;;;;;5047300;28;20206;-83
2022/02/19 10:54:21;;;;;;;2.65;1.50;;;;;;;;;;5039759;28;20275;-84
2022/02/19 10:56:49;;;;;;;2.45;1.60;;;;;;;;;;5048501;28;20229;-85
2022/02/19 10:59:17;;;;;;;1.75;1.13;;;;;;;;;;5047823;28;20222;-85
2022/02/19 11:01:46;;;;;;;2.78;2.00;;;;;;;;;;5047758;28;20682;-83
2022/02/19 11:04:15;;;;;;;1.75;1.27;;;;;;;;;;5048461;28;20232;-85
2022/02/19 11:06:43;;;;;;;3.30;1.40;;;;;;;;;;5048019;28;20664;-83
2022/02/19 11:09:13;;;;;;;2.90;1.55;;;;;;;;;;5046562;28;20233;-83
2022/02/19 11:11:43;;;;;;;2.70;1.52;;;;;;;;;;5045826;28;20194;-82
2022/02/19 11:14:12;;;;;;;5.40;1.80;;;;;;;;;;5048035;28;20198;-83
2022/02/19 11:16:40;;;;;;;3.80;1.35;;;;;;;;;;5046049;28;20229;-85
2022/02/19 11:19:09;;;;;;;3.65;1.52;;;;;;;;;;5046288;28;20698;-84
2022/02/19 11:21:38;;;;;;;2.55;2.05;;;;;;;;;;5046067;28;20210;-81
2022/02/19 11:24:07;;;;;;;4.20;1.55;;;;;;;;;;5046929;28;20281;-82
2022/02/19 11:26:37;;;;;;;4.30;1.40;;;;;;;;;;5046026;28;20678;-82
2022/02/19 11:29:07;;;;;;;3.22;1.73;;;;;;;;;;5045870;28;20198;-84
2022/02/19 11:31:35;;;;;;;3.20;2.72;;;;;;;;;;5045793;28;20717;-82
2022/02/19 11:34:05;;;;;;;3.17;1.55;;;;;;;;;;5045567;28;20245;-82
2022/02/19 11:36:33;;;;;;;1.73;1.60;;;;;;;;;;5046629;28;20706;-83
2022/02/19 11:39:04;;;;;;;1.23;1.10;;;;;;;;;;5044038;28;20664;-84
2022/02/19 11:41:37;;;;;;;3.58;1.88;;;;;;;;;;5045622;28;20214;-85
2022/02/19 11:44:06;;;;;;;3.17;1.25;;;;;;;;;;5045104;28;20233;-83
2022/02/19 11:46:35;;;;;;;2.67;1.30;;;;;;;;;;5044496;28;20222;-83
2022/02/19 11:49:23;;;;;;;2.47;1.13;;;;;;;;;;5045284;28;20709;-84
2022/02/19 11:52:15;;;;;;;1.85;1.27;;;;;;;;;;5047458;28;20206;-81
2022/02/19 11:54:43;;;;;;;2.45;1.67;;;;;;;;;;5052720;28;20263;-82
2022/02/19 11:57:21;;;;;;;2.42;1.48;;;;;;;;;;5053917;28;20221;-83
2022/02/19 11:59:50;;;;;;;2.08;1.55;;;;;;;;;;5055153;28;20226;-84
2022/02/19 12:02:19;;;;;;;2.35;1.27;;;;;;;;;;5051617;28;20198;-84
2022/02/19 12:05:21;;;;;;;2.75;1.10;;;;;;;;;;5049724;28;20206;-84
2022/02/19 12:07:58;;;;;;;1.67;1.35;;;;;;;;;;5048849;28;20210;-84
2022/02/19 12:10:26;;;;;;;2.55;1.70;;;;;;;;;;5049356;28;20213;-83
2022/02/19 12:13:08;;;;;;;1.95;1.02;;;;;;;;;;5047641;28;20211;-82
2022/02/19 12:15:36;;;;;;;1.60;1.48;;;;;;;;;;5048350;28;20206;-83
2022/02/19 12:18:04;;;;;;;1.90;1.00;;;;;;;;;;5047794;28;20198;-84
2022/02/19 12:20:35;;;;;;;2.13;1.48;;;;;;;;;;5047356;28;20226;-84
2022/02/19 12:23:05;;;;;;;1.25;1.08;;;;;;;;;;5047683;28;20686;-84
2022/02/19 12:26:08;;;;;;;1.98;1.55;;;;;;;;;;5048674;28;20207;-84
2022/02/19 12:28:40;;;;;;;1.52;1.20;;;;;;;;;;5047032;28;20202;-82
2022/02/19 12:31:24;;;;;;;2.63;1.42;;;;;;;;;;5046782;28;20206;-84
2022/02/19 12:33:53;;;;;;;2.03;1.27;;;;;;;;;;5047494;28;20206;-83
2022/02/19 12:36:21;;;;;;;1.67;1.58;;;;;;;;;;5046973;28;20226;-84
2022/02/19 12:38:52;;;;;;;1.55;1.33;;;;;;;;;;5047294;28;20223;-83
2022/02/19 12:41:21;;;;;;;1.50;1.40;;;;;;;;;;5047705;28;20240;-83
2022/02/19 12:44:10;;;;;;;2.63;1.60;;;;;;;;;;5046785;28;20202;-83
2022/02/19 12:46:39;;;;;;;2.45;1.60;;;;;;;;;;5046396;28;20218;-84
2022/02/19 12:49:08;;;;;;;1.27;1.17;;;;;;;;;;5047262;28;20205;-84
2022/02/19 12:51:35;;;;;;;1.25;1.05;;;;;;;;;;5046526;28;20202;-84
2022/02/19 12:54:03;;;;;;;1.42;0.90;;;;;;;;;;5046093;28;20222;-83
2022/02/19 12:56:39;;;;;;;1.48;1.33;;;;;;;;;;5044475;28;20817;-83
2022/02/19 12:59:08;;;;;;;1.60;1.50;;;;;;;;;;5043211;28;20232;-83
2022/02/19 13:01:36;;;;;;;1.50;1.15;;;;;;;;;;5045016;28;20217;-84
2022/02/19 13:04:03;;;;;;;1.80;1.17;;;;;;;;;;5043103;28;20699;-83
2022/02/19 13:06:45;;;;;;;1.10;1.00;;;;;;;;;;5044101;28;20252;-83
2022/02/19 13:09:13;;;;;;;2.45;1.20;;;;;;;;;;5043067;28;20746;-82
2022/02/19 13:11:42;;;;;;;2.13;1.42;;;;;;;;;;5043525;28;20273;-82
2022/02/19 13:14:10;;;;;;;3.00;1.60;;;;;;;;;;5043651;28;20205;-83
2022/02/19 13:16:37;;;;;;;1.92;1.38;;;;;;;;;;5043716;28;20703;-83
2022/02/19 13:19:05;;;;;;;1.42;1.00;;;;;;;;;;5043981;28;20238;-82
2022/02/19 13:21:32;;;;;;;1.80;1.40;;;;;;;;;;5044240;28;20205;-83
2022/02/19 13:23:59;;;;;;;1.02;0.98;;;;;;;;;;5043559;28;20202;-82
2022/02/19 13:26:29;;;;;;;1.20;1.10;;;;;;;;;;5043301;28;20222;-83
2022/02/19 13:28:58;;;;;;;1.25;1.00;;;;;;;;;;5044227;28;20206;-82
2022/02/19 13:31:28;;;;;;;2.42;1.45;;;;;;;;;;5043725;28;20267;-81
2022/02/19 13:33:56;;;;;;;1.63;1.40;;;;;;;;;;5042458;28;20682;-81
2022/02/19 13:36:24;;;;;;;1.80;0.80;;;;;;;;;;5043576;28;20222;-83
2022/02/19 13:38:52;;;;;;;2.88;1.23;;;;;;;;;;5044725;28;20213;-82
2022/02/19 13:41:19;;;;;;;0.80;0.80;;;;;;;;;;5045262;28;20261;-83
2022/02/19 13:43:57;;;;;;;1.30;1.20;;;;;;;;;;5044239;28;20294;-82
2022/02/19 13:46:27;;;;;;;0.90;0.90;;;;;;;;;;5044301;28;20226;-83
2022/02/19 13:48:55;;;;;;;1.35;1.10;;;;;;;;;;5043577;28;20206;-83
2022/02/19 13:51:32;;;;;;;0.50;0.50;;;;;;;;;;5043508;28;20205;-82
2022/02/19 13:54:16;;;;;;;0.75;0.75;;;;;;;;;;5043744;28;20194;-82
2022/02/19 13:56:44;;;;;;;1.10;1.00;;;;;;;;;;5044117;28;20230;-83
2022/02/19 13:59:19;;;;;;;2.80;0.93;;;;;;;;;;5043477;28;20627;-83
2022/02/19 14:01:48;;;;;;;1.83;1.10;;;;;;;;;;5043993;28;20198;-82
2022/02/19 14:04:32;;;;;;;1.50;1.00;;;;;;;;;;5044389;28;20206;-83
2022/02/19 14:07:08;;;;;;;1.33;0.82;;;;;;;;;;5042837;28;20313;-83
2022/02/19 14:09:35;;;;;;;2.20;1.23;;;;;;;;;;5041812;28;20226;-81
2022/02/19 14:12:03;;;;;;;1.10;0.85;;;;;;;;;;5042787;28;20211;-82
2022/02/19 14:14:34;;;;;;;1.05;0.95;;;;;;;;;;5042348;28;20237;-82
2022/02/19 14:17:06;;;;;;;0.65;0.65;;;;;;;;;;5043840;28;20218;-83
2022/02/19 14:19:34;;;;;;;1.27;1.17;;;;;;;;;;5044501;28;20190;-82
2022/02/19 14:22:08;;;;;;;1.45;0.90;;;;;;;;;;5043699;28;20202;-82
2022/02/19 14:24:36;;;;;;;0.88;0.80;;;;;;;;;;5044879;28;20214;-82
2022/02/19 14:27:14;;;;;;;1.00;0.90;;;;;;;;;;5044084;28;20598;-83
2022/02/19 14:29:42;;;;;;;1.88;1.00;;;;;;;;;;5048670;28;20205;-84
2022/02/19 14:32:11;;;;;;;1.73;0.85;;;;;;;;;;5047265;28;20210;-83
2022/02/19 14:34:39;;;;;;;1.15;0.82;;;;;;;;;;5047490;28;20214;-82
2022/02/19 14:37:06;;;;;;;1.58;1.00;;;;;;;;;;5046954;28;20222;-83
2022/02/19 14:39:34;;;;;;;0.88;0.80;;;;;;;;;;5047469;28;20206;-83
2022/02/19 14:42:01;;;;;;;1.75;1.00;;;;;;;;;;5026617;28;20207;-82
2022/02/19 14:44:30;;;;;;;1.35;0.90;;;;;;;;;;5026955;28;20238;-83
2022/02/19 14:46:57;;;;;;;0.73;0.73;;;;;;;;;;5026845;28;20223;-82
2022/02/19 14:49:26;;;;;;;0.93;0.80;;;;;;;;;;5026204;28;20214;-83
2022/02/19 14:51:54;;;;;;;0.80;0.80;;;;;;;;;;5025312;28;20209;-84
2022/02/19 14:54:23;;;;;;;1.05;0.95;;;;;;;;;;5026574;28;20233;-83
2022/02/19 14:56:50;;;;;;;1.35;0.80;;;;;;;;;;5022099;28;20291;-85
2022/02/19 14:59:18;;;;;;;1.38;1.27;;;;;;;;;;5017819;28;20203;-86
2022/02/19 15:01:45;;;;;;;1.05;0.90;;;;;;;;;;5017863;28;20230;-86
2022/02/19 15:04:13;;;;;;;2.67;0.85;;;;;;;;;;5018272;28;20625;-85